Terminal Aerodrome Forecast
Issued by NWS

Home | Current Version | Previous Version | Text Only | Print | Product List | Glossary On
Versions: 1 2 3 4 5 6 7 8 9 10 11 12
000
FTUS43 KICT 261729
TAFSLN
TAF
KSLN 261729Z 2618/2718 02015G22KT P6SM BKN009 OVC025
     FM270000 34012KT P6SM VCSH OVC015
     FM270200 34012KT P6SM -FZDZSN OVC012
     FM270700 33012KT P6SM BKN025
     FM271000 33015KT P6SM SCT020 BKN035=

USA.gov is the U.S. government's official web portal to all federal, state and local government web resources and services.